Terminal Aerodrome Forecast
Issued by NWS Charleston, WV

Current Version | Previous Version | Text Only | Print | Product List | Glossary Off
Versions: 1 2 3 4 5 6 7 8 9 10 11 12 13 14 15 16 17 18 19 20 21 22 23

000
FTUS41 KRLX 191406 AAA
TAFPKB
TAF AMD
KPKB 191406Z 1914/2012 26003KT 5SM SHRA BKN006 OVC020
      TEMPO 1915/1916 SCT006 BKN025
     FM191600 27006KT P6SM BKN035
     FM191700 27010G17KT P6SM SCT040
     FM200000 25008KT P6SM BKN050=

USA.gov is the U.S. government's official web portal to all federal, state and local government web resources and services.